createdAt,value
2022-10-20T00:03:41.507Z,2.60
2022-10-20T00:13:48.482Z,3.00
2022-10-20T00:23:51.564Z,2.67
2022-10-20T00:33:55.592Z,2.60
2022-10-20T00:44:00.156Z,2.70
2022-10-20T00:54:09.764Z,2.88
2022-10-20T01:04:12.975Z,2.80
2022-10-20T01:14:30.899Z,2.75
2022-10-20T01:25:02.618Z,2.38
2022-10-20T01:35:12.718Z,3.05
2022-10-20T01:45:18.267Z,2.93
2022-10-20T01:55:22.264Z,2.83
2022-10-20T02:05:41.054Z,2.22
2022-10-20T02:15:49.262Z,2.60
2022-10-20T02:25:54.204Z,2.90
2022-10-20T02:35:59.893Z,2.40
2022-10-20T02:46:02.787Z,2.50
2022-10-20T02:56:07.256Z,3.05
2022-10-20T03:06:11.585Z,3.25
2022-10-20T03:16:15.530Z,3.70
2022-10-20T03:26:18.380Z,3.92
2022-10-20T03:36:24.312Z,3.80
2022-10-20T03:46:27.118Z,3.60
2022-10-20T03:56:31.163Z,4.55
2022-10-20T04:06:33.781Z,4.55
2022-10-20T04:16:37.764Z,4.80
2022-10-20T04:26:40.450Z,4.63
2022-10-20T04:36:44.487Z,5.47
2022-10-20T04:46:47.084Z,5.57
2022-10-20T04:56:51.042Z,5.70
2022-10-20T05:06:53.640Z,5.63
2022-10-20T05:16:57.636Z,4.80
2022-10-20T05:27:00.284Z,5.22
2022-10-20T05:37:04.323Z,5.28
2022-10-20T05:47:06.903Z,4.35
2022-10-20T05:57:10.872Z,5.20
2022-10-20T06:07:13.473Z,5.03
2022-10-20T06:17:17.495Z,4.75
2022-10-20T06:27:20.103Z,5.35
2022-10-20T06:37:24.041Z,4.90
2022-10-20T06:47:26.652Z,4.82
2022-10-20T06:57:31.923Z,5.13
2022-10-20T07:17:43.466Z,4.10
2022-10-20T07:27:46.079Z,4.05
2022-10-20T07:37:51.360Z,4.15
2022-10-20T07:47:54.355Z,3.47
2022-10-20T07:57:58.306Z,4.03
2022-10-20T08:08:01.164Z,4.43
2022-10-20T08:18:05.583Z,3.90
2022-10-20T08:28:09.191Z,4.10
2022-10-20T08:38:13.125Z,4.10
2022-10-20T08:48:19.406Z,4.20
2022-10-20T08:58:25.523Z,4.28
2022-10-20T09:08:31.358Z,4.32
2022-10-20T09:18:35.961Z,4.28
2022-10-20T09:29:02.010Z,4.30
2022-10-20T09:39:03.103Z,4.47
2022-10-20T09:49:07.063Z,3.65
2022-10-20T09:59:22.049Z,3.97
2022-10-20T10:09:28.462Z,4.18
2022-10-20T10:19:34.266Z,3.90
2022-10-20T10:29:37.337Z,4.13
2022-10-20T10:39:41.731Z,4.30
2022-10-20T10:49:56.877Z,4.50
2022-10-20T11:00:03.717Z,4.13
2022-10-20T11:10:12.747Z,4.10
2022-10-20T11:20:28.443Z,4.55
2022-10-20T11:30:34.875Z,4.53
2022-10-20T11:40:44.828Z,4.65
2022-10-20T11:50:53.787Z,5.05
2022-10-20T12:01:04.526Z,4.55
2022-10-20T12:11:13.710Z,5.00
2022-10-20T12:21:56.508Z,5.13
2022-10-20T12:32:24.850Z,5.55
2022-10-20T12:42:31.630Z,4.82
2022-10-20T12:52:37.093Z,5.07
2022-10-20T13:02:51.110Z,5.60
2022-10-20T13:12:54.189Z,5.75
2022-10-20T13:33:18.348Z,6.07
2022-10-20T13:43:43.419Z,5.63
2022-10-20T13:53:49.815Z,6.18
2022-10-20T14:03:53.973Z,6.50
2022-10-20T14:13:56.943Z,7.38
2022-10-20T14:24:04.164Z,7.80
2022-10-20T14:34:06.867Z,7.68
2022-10-20T14:44:31.050Z,8.32
2022-10-20T14:54:37.421Z,7.45
2022-10-20T15:04:42.782Z,8.98
2022-10-20T15:14:48.024Z,8.50
2022-10-20T15:24:52.103Z,8.02
2022-10-20T15:34:54.686Z,8.07
2022-10-20T15:44:58.675Z,8.98
2022-10-20T15:55:01.268Z,8.00
2022-10-20T16:05:05.930Z,8.65
2022-10-20T16:15:10.315Z,8.23
2022-10-20T16:25:14.456Z,9.02
2022-10-20T16:35:17.295Z,8.85
2022-10-20T16:45:21.238Z,9.88
2022-10-20T16:55:23.856Z,8.43
2022-10-20T17:05:27.798Z,8.57
2022-10-20T17:15:30.694Z,9.07
2022-10-20T17:25:34.748Z,8.93
2022-10-20T17:35:37.817Z,9.18
2022-10-20T17:45:41.945Z,9.35
2022-10-20T17:55:44.556Z,9.23
2022-10-20T18:05:48.562Z,9.48
2022-10-20T18:15:51.186Z,10.15
2022-10-20T18:25:55.463Z,10.18
2022-10-20T18:35:58.038Z,9.75
2022-10-20T18:46:03.044Z,10.15
2022-10-20T18:56:07.343Z,9.48
2022-10-20T19:06:13.177Z,11.10
2022-10-20T19:16:17.994Z,11.23
2022-10-20T19:26:24.835Z,11.25
2022-10-20T19:36:28.580Z,10.02
2022-10-20T19:46:32.879Z,11.38
2022-10-20T19:56:35.771Z,10.73
2022-10-20T20:06:39.889Z,11.43
2022-10-20T20:26:47.042Z,11.00
2022-10-20T20:36:49.695Z,10.70
2022-10-20T20:46:53.893Z,13.65
2022-10-20T20:56:56.619Z,12.40
2022-10-20T21:07:02.780Z,12.35
2022-10-20T21:17:05.714Z,11.63
2022-10-20T21:27:09.671Z,12.25
2022-10-20T21:37:12.366Z,11.52
2022-10-20T21:47:16.315Z,12.05
2022-10-20T21:57:18.973Z,11.95
2022-10-20T22:07:23.801Z,13.18
2022-10-20T22:17:26.423Z,12.68
2022-10-20T22:27:41.911Z,12.88
2022-10-20T22:37:45.134Z,12.80
2022-10-20T22:47:49.098Z,11.95
2022-10-20T22:57:53.115Z,13.50
2022-10-20T23:07:57.125Z,12.45
2022-10-20T23:17:59.739Z,12.35
2022-10-20T23:28:03.707Z,13.40
2022-10-20T23:38:08.484Z,12.75
2022-10-20T23:48:13.589Z,12.75
2022-10-20T23:58:20.908Z,11.77
